createdAt,value
2022-08-11T00:01:22.343Z,44.50
2022-08-11T00:03:54.620Z,44.60
2022-08-11T00:06:31.404Z,44.70
2022-08-11T00:09:00.569Z,44.70
2022-08-11T00:11:44.895Z,44.80
2022-08-11T00:14:19.186Z,44.80
2022-08-11T00:16:58.717Z,44.80
2022-08-11T00:20:13.044Z,44.90
2022-08-11T00:22:23.549Z,44.80
2022-08-11T00:24:53.322Z,44.90
2022-08-11T00:27:33.331Z,44.90
2022-08-11T00:30:00.433Z,45.00
2022-08-11T00:32:28.544Z,45.10
2022-08-11T00:35:53.702Z,45.20
2022-08-11T00:37:52.385Z,45.30
2022-08-11T00:40:33.277Z,45.30
2022-08-11T00:43:20.762Z,45.30
2022-08-11T00:46:23.203Z,45.40
2022-08-11T00:49:17.560Z,45.30
2022-08-11T00:52:04.664Z,45.40
2022-08-11T00:54:46.609Z,45.30
2022-08-11T00:57:56.790Z,45.40
2022-08-11T01:00:27.057Z,45.50
2022-08-11T01:03:32.619Z,45.50
2022-08-11T01:06:32.945Z,45.50
2022-08-11T01:09:38.713Z,45.60
2022-08-11T01:12:32.663Z,45.50
2022-08-11T01:15:17.435Z,45.50
2022-08-11T01:18:12.028Z,45.50
2022-08-11T01:21:09.837Z,45.60
2022-08-11T01:24:04.416Z,45.50
2022-08-11T01:27:04.685Z,45.50
2022-08-11T01:30:10.167Z,45.60
2022-08-11T01:32:55.616Z,45.70
2022-08-11T01:35:44.133Z,45.60
2022-08-11T01:38:42.557Z,45.70
2022-08-11T01:41:56.530Z,45.80
2022-08-11T01:44:44.717Z,45.80
2022-08-11T01:47:52.931Z,45.80
2022-08-11T01:50:46.355Z,45.90
2022-08-11T01:53:40.272Z,46.00
2022-08-11T01:56:26.466Z,46.10
2022-08-11T01:59:17.109Z,46.10
2022-08-11T02:02:21.284Z,46.20
2022-08-11T02:05:26.618Z,46.30
2022-08-11T02:08:11.875Z,46.40
2022-08-11T02:11:15.828Z,46.50
2022-08-11T02:13:52.134Z,46.70
2022-08-11T02:16:24.969Z,46.70
2022-08-11T02:19:36.667Z,46.80
2022-08-11T02:22:34.695Z,46.90
2022-08-11T02:25:09.584Z,46.90
2022-08-11T02:28:02.439Z,47.00
2022-08-11T02:30:35.492Z,47.10
2022-08-11T02:33:34.519Z,47.20
2022-08-11T02:36:08.861Z,47.40
2022-08-11T02:39:08.114Z,47.50
2022-08-11T02:42:07.630Z,47.60
2022-08-11T02:45:06.549Z,47.60
2022-08-11T02:47:42.371Z,47.70
2022-08-11T02:50:17.775Z,47.80
2022-08-11T02:53:03.320Z,48.00
2022-08-11T02:55:57.025Z,48.10
2022-08-11T02:59:08.942Z,48.20
2022-08-11T03:01:53.176Z,48.30
2022-08-11T03:05:02.169Z,48.40
2022-08-11T03:07:52.179Z,48.50
2022-08-11T03:10:40.810Z,48.60
2022-08-11T03:13:41.022Z,48.70
2022-08-11T03:16:42.954Z,48.70
2022-08-11T03:19:23.067Z,49.00
2022-08-11T03:22:11.357Z,49.10
2022-08-11T03:24:54.738Z,49.20
2022-08-11T03:27:27.416Z,49.40
2022-08-11T03:30:13.181Z,49.40
2022-08-11T03:33:38.686Z,49.70
2022-08-11T03:36:14.551Z,49.80
2022-08-11T03:38:49.878Z,49.90
2022-08-11T03:42:01.480Z,50.00
2022-08-11T03:44:37.348Z,50.20
2022-08-11T03:47:26.173Z,50.20
2022-08-11T03:50:28.901Z,50.40
2022-08-11T03:53:32.214Z,50.50
2022-08-11T03:56:29.786Z,50.60
2022-08-11T03:59:34.764Z,50.80
2022-08-11T04:02:39.661Z,51.00
2022-08-11T04:05:33.733Z,51.10
2022-08-11T04:08:12.181Z,51.20
2022-08-11T04:11:00.343Z,51.30
2022-08-11T04:13:58.171Z,51.50
2022-08-11T04:16:41.628Z,51.60
2022-08-11T04:19:38.771Z,51.60
2022-08-11T04:22:41.851Z,51.80
2022-08-11T04:25:27.089Z,51.90
2022-08-11T04:28:06.075Z,52.00
2022-08-11T04:31:03.759Z,52.10
2022-08-11T04:34:06.682Z,52.20
2022-08-11T04:36:56.170Z,52.30
2022-08-11T04:40:00.938Z,52.20
2022-08-11T04:43:21.194Z,52.50
2022-08-11T04:46:20.493Z,52.60
2022-08-11T04:49:12.254Z,52.60
2022-08-11T04:52:38.438Z,52.80
2022-08-11T04:55:38.839Z,53.00
2022-08-11T04:58:41.357Z,53.00
2022-08-11T05:01:36.956Z,53.10
2022-08-11T05:04:37.952Z,53.10
2022-08-11T05:07:35.454Z,53.20
2022-08-11T05:10:14.832Z,53.30
2022-08-11T05:13:18.327Z,53.30
2022-08-11T05:16:11.087Z,53.40
2022-08-11T05:19:08.732Z,53.40
2022-08-11T05:21:57.244Z,53.50
2022-08-11T05:24:55.748Z,53.50
2022-08-11T05:27:45.468Z,53.60
2022-08-11T05:30:34.350Z,53.60
2022-08-11T05:33:30.441Z,53.60
2022-08-11T05:36:35.147Z,53.70
2022-08-11T05:39:36.418Z,53.80
2022-08-11T05:42:30.101Z,53.80
2022-08-11T05:45:54.819Z,53.90
2022-08-11T05:48:39.699Z,54.00
2022-08-11T05:51:30.368Z,53.90
2022-08-11T05:54:29.190Z,53.80
2022-08-11T05:57:01.136Z,53.80
2022-08-11T05:59:28.779Z,53.70
2022-08-11T06:02:05.960Z,53.60
2022-08-11T06:04:34.498Z,53.60
2022-08-11T06:07:09.316Z,53.50
2022-08-11T06:09:37.925Z,53.50
2022-08-11T06:12:17.147Z,53.40
2022-08-11T06:14:46.152Z,53.30
2022-08-11T06:17:13.896Z,53.20
2022-08-11T06:19:42.766Z,53.10
2022-08-11T06:22:13.280Z,53.00
2022-08-11T06:24:42.580Z,52.90
2022-08-11T06:27:13.114Z,52.80
2022-08-11T06:29:55.123Z,52.60
2022-08-11T06:32:29.111Z,52.40
2022-08-11T06:35:18.827Z,52.30
2022-08-11T06:38:07.343Z,52.20
2022-08-11T06:41:11.606Z,52.00
2022-08-11T06:43:55.897Z,51.90
2022-08-11T09:54:18.998Z,34.40
2022-08-11T09:57:05.526Z,34.00
2022-08-11T09:59:32.824Z,33.90
2022-08-11T10:02:03.539Z,33.30
2022-08-11T10:04:48.484Z,33.10
2022-08-11T10:07:16.859Z,32.80
2022-08-11T10:09:56.287Z,32.60
2022-08-11T10:12:26.145Z,32.00
2022-08-11T10:15:15.353Z,31.90
2022-08-11T10:18:20.543Z,31.50
2022-08-11T10:20:50.290Z,31.40
2022-08-11T10:24:01.463Z,31.30
2022-08-11T10:26:45.737Z,30.80
2022-08-11T10:29:36.815Z,30.60
2022-08-11T10:32:31.460Z,29.60
2022-08-11T10:35:01.366Z,29.50
2022-08-11T10:38:06.295Z,29.60
2022-08-11T10:40:27.660Z,29.50
2022-08-11T10:43:03.557Z,28.90
2022-08-11T10:45:52.477Z,28.70
2022-08-11T10:48:21.467Z,28.60
2022-08-11T10:51:08.062Z,28.70
2022-08-11T10:53:58.115Z,28.50
2022-08-11T10:56:47.226Z,28.40
2022-08-11T10:59:15.532Z,28.20
2022-08-11T11:01:44.183Z,27.70
2022-08-11T11:04:17.837Z,27.00
2022-08-11T11:07:04.855Z,26.70
2022-08-11T11:09:58.147Z,26.40
2022-08-11T11:12:46.450Z,26.50
2022-08-11T11:15:36.381Z,26.40
2022-08-11T11:18:09.477Z,26.40
2022-08-11T11:20:41.629Z,26.10
2022-08-11T11:23:38.232Z,26.00
2022-08-11T11:26:31.510Z,25.70
2022-08-11T11:29:13.382Z,25.50
2022-08-11T11:31:46.287Z,25.30
2022-08-11T11:34:34.297Z,25.30
2022-08-11T11:37:03.399Z,25.10
2022-08-11T11:39:35.248Z,25.00
2022-08-11T11:42:07.922Z,24.90
2022-08-11T11:44:36.948Z,25.00
2022-08-11T11:47:05.451Z,24.70
2022-08-11T11:49:35.816Z,24.30
2022-08-11T11:52:03.007Z,24.20
2022-08-11T11:54:33.750Z,24.20
2022-08-11T11:57:21.768Z,24.10
2022-08-11T12:00:33.355Z,24.20
2022-08-11T12:03:05.108Z,24.10
2022-08-11T12:05:34.585Z,24.40
2022-08-11T12:08:18.614Z,24.40
2022-08-11T12:11:15.887Z,24.10
2022-08-11T12:13:45.843Z,23.60
2022-08-11T12:16:33.158Z,23.50
2022-08-11T12:19:03.187Z,23.40
2022-08-11T12:21:30.718Z,23.30
2022-08-11T12:24:19.194Z,23.50
2022-08-11T12:27:14.870Z,23.90
2022-08-11T12:29:41.232Z,23.60
2022-08-11T12:32:11.628Z,23.50
2022-08-11T12:34:38.914Z,23.20
2022-08-11T12:37:13.018Z,23.30
2022-08-11T12:40:16.499Z,23.40
2022-08-11T12:43:21.065Z,23.30
2022-08-11T12:45:58.339Z,23.20
2022-08-11T12:48:59.227Z,23.00
2022-08-11T12:52:12.785Z,22.80
2022-08-11T12:54:52.487Z,22.80
2022-08-11T12:58:03.806Z,22.90
2022-08-11T13:00:50.379Z,23.30
2022-08-11T13:03:38.949Z,23.40
2022-08-11T13:06:07.475Z,23.10
2022-08-11T13:08:37.071Z,23.10
2022-08-11T13:11:23.723Z,23.00
2022-08-11T13:13:57.014Z,23.10
2022-08-11T13:16:53.840Z,22.80
2022-08-11T13:19:21.977Z,22.60
2022-08-11T13:21:53.502Z,22.60
2022-08-11T13:24:21.833Z,22.40
2022-08-11T13:26:50.584Z,22.40
2022-08-11T13:29:20.835Z,22.30
2022-08-11T13:31:48.664Z,22.40
2022-08-11T13:34:17.713Z,22.50
2022-08-11T13:36:45.815Z,22.40
2022-08-11T13:39:14.141Z,22.40
2022-08-11T13:41:45.090Z,22.30
2022-08-11T13:44:18.195Z,22.30
2022-08-11T13:46:48.641Z,22.30
2022-08-11T13:49:21.855Z,22.40
2022-08-11T13:51:49.267Z,22.30
2022-08-11T13:54:22.662Z,22.20
2022-08-11T13:56:53.724Z,22.10
2022-08-11T13:59:23.850Z,22.20
2022-08-11T14:02:22.744Z,22.20
2022-08-11T14:04:56.845Z,22.20
2022-08-11T14:07:27.430Z,22.20
2022-08-11T14:09:58.970Z,22.00
2022-08-11T14:12:50.689Z,22.00
2022-08-11T14:15:26.215Z,22.00
2022-08-11T14:18:01.696Z,22.00
2022-08-11T14:20:50.965Z,21.90
2022-08-11T14:23:19.565Z,22.00
2022-08-11T14:26:06.358Z,22.10
2022-08-11T14:28:41.510Z,22.20
2022-08-11T14:31:12.058Z,22.10
2022-08-11T14:33:59.688Z,22.10
2022-08-11T14:36:38.066Z,22.10
2022-08-11T14:39:18.610Z,22.00
2022-08-11T14:42:16.791Z,21.90
2022-08-11T14:45:17.011Z,22.00
2022-08-11T14:47:48.729Z,22.10
2022-08-11T14:50:23.152Z,22.40
2022-08-11T14:52:56.925Z,22.40
2022-08-11T14:55:44.367Z,22.40
2022-08-11T14:58:15.867Z,22.20
2022-08-11T15:00:44.133Z,22.40
2022-08-11T15:03:14.285Z,22.40
2022-08-11T15:05:58.317Z,22.40
2022-08-11T15:08:56.782Z,22.30
2022-08-11T15:11:50.740Z,22.30
2022-08-11T15:14:38.748Z,22.30
2022-08-11T15:17:10.330Z,22.20
2022-08-11T15:20:00.303Z,22.10
2022-08-11T15:22:46.243Z,22.20
2022-08-11T15:25:13.568Z,22.30
2022-08-11T15:28:01.357Z,22.20
2022-08-11T15:30:47.981Z,22.10
2022-08-11T15:33:35.552Z,22.10
2022-08-11T15:36:26.177Z,22.10
2022-08-11T15:38:58.442Z,22.20
2022-08-11T15:41:59.043Z,22.40
2022-08-11T15:45:05.354Z,22.40
2022-08-11T15:48:05.349Z,22.40
2022-08-11T15:50:38.717Z,22.60
2022-08-11T15:53:12.160Z,22.50
2022-08-11T15:55:39.778Z,22.70
2022-08-11T15:58:28.100Z,22.80
2022-08-11T16:01:15.232Z,23.00
2022-08-11T16:04:12.619Z,22.80
2022-08-11T16:06:47.451Z,22.50
2022-08-11T16:09:18.272Z,22.60
2022-08-11T16:11:47.463Z,22.70
2022-08-11T16:14:35.946Z,22.80
2022-08-11T16:17:04.556Z,22.90
2022-08-11T16:19:36.009Z,22.90
2022-08-11T16:22:08.306Z,22.90
2022-08-11T16:27:05.453Z,22.90
2022-08-11T16:27:35.102Z,23.00
2022-08-11T16:30:03.832Z,23.10
2022-08-11T16:32:32.203Z,23.10
2022-08-11T16:35:25.962Z,23.00
2022-08-11T16:38:13.465Z,23.10
2022-08-11T16:40:41.638Z,23.00
2022-08-11T16:43:32.109Z,23.00
2022-08-11T16:46:20.607Z,23.20
2022-08-11T16:48:49.524Z,23.20
2022-08-11T16:51:17.530Z,23.30
2022-08-11T16:54:04.526Z,23.30
2022-08-11T16:56:49.101Z,23.30
2022-08-11T16:59:19.656Z,23.50
2022-08-11T17:01:55.959Z,23.50
2022-08-11T17:05:02.721Z,23.50
2022-08-11T17:07:49.321Z,23.50
2022-08-11T17:11:03.293Z,23.60
2022-08-11T17:13:46.617Z,23.70
2022-08-11T17:16:20.245Z,23.70
2022-08-11T17:19:04.565Z,24.10
2022-08-11T17:22:06.063Z,24.20
2022-08-11T17:24:37.157Z,24.20
2022-08-11T17:27:11.597Z,24.40
2022-08-11T17:29:57.350Z,24.40
2022-08-11T17:32:56.445Z,24.20
2022-08-11T17:35:33.533Z,24.30
2022-08-11T17:38:05.575Z,24.30
2022-08-11T17:40:37.067Z,24.40
2022-08-11T17:43:25.095Z,24.70
2022-08-11T17:46:05.436Z,25.10
2022-08-11T17:48:47.846Z,25.40
2022-08-11T17:51:38.908Z,25.50
2022-08-11T17:54:26.304Z,25.60
2022-08-11T17:57:20.112Z,25.70
2022-08-11T17:59:53.304Z,25.50
2022-08-11T18:02:49.891Z,25.40
2022-08-11T18:05:20.397Z,25.60
2022-08-11T18:08:09.902Z,25.90
2022-08-11T18:10:56.409Z,26.10
2022-08-11T18:13:44.346Z,26.40
2022-08-11T18:16:30.566Z,26.60
2022-08-11T18:19:16.988Z,26.70
2022-08-11T18:22:14.812Z,26.90
2022-08-11T18:25:10.167Z,27.10
2022-08-11T18:27:59.131Z,27.30
2022-08-11T18:30:45.883Z,27.40
2022-08-11T18:34:03.874Z,27.50
2022-08-11T18:36:49.571Z,27.60
2022-08-11T18:39:38.324Z,27.90
2022-08-11T18:42:30.922Z,28.10
2022-08-11T18:45:25.209Z,28.10
2022-08-11T18:48:20.537Z,28.20
2022-08-11T18:51:30.702Z,28.30
2022-08-11T18:54:18.433Z,28.30
2022-08-11T18:57:06.457Z,28.40
2022-08-11T19:00:00.128Z,28.50
2022-08-11T19:02:49.479Z,28.60
2022-08-11T19:06:36.108Z,28.70
2022-08-11T19:08:48.815Z,28.80
2022-08-11T19:11:34.912Z,28.90
2022-08-11T19:14:30.156Z,29.00
2022-08-11T19:17:44.337Z,28.90
2022-08-11T19:20:30.581Z,29.00
2022-08-11T19:23:17.674Z,29.10
2022-08-11T19:26:04.677Z,29.20
2022-08-11T19:28:52.754Z,29.20
2022-08-11T19:31:44.338Z,29.40
2022-08-11T19:34:35.365Z,29.40
2022-08-11T19:37:24.942Z,29.50
2022-08-11T19:40:19.728Z,29.40
2022-08-11T19:43:18.582Z,29.50
2022-08-11T19:46:15.973Z,29.50
2022-08-11T19:49:04.094Z,29.70
2022-08-11T19:51:53.771Z,29.70
2022-08-11T19:54:44.659Z,29.80
2022-08-11T19:57:35.708Z,30.10
2022-08-11T20:00:30.216Z,30.30
2022-08-11T20:03:17.546Z,30.60
2022-08-11T20:06:04.110Z,30.80
2022-08-11T20:08:53.003Z,30.90
2022-08-11T20:11:42.537Z,31.00
2022-08-11T20:14:29.921Z,31.10
2022-08-11T20:17:17.403Z,31.20
2022-08-11T20:20:03.300Z,31.40
2022-08-11T20:22:50.411Z,31.60
2022-08-11T20:25:38.108Z,31.70
2022-08-11T20:28:25.341Z,31.80
2022-08-11T20:31:12.408Z,31.90
2022-08-11T20:33:59.153Z,32.00
2022-08-11T20:36:48.715Z,32.10
2022-08-11T20:39:41.435Z,32.10
2022-08-11T20:42:30.469Z,32.10
2022-08-11T20:45:23.393Z,32.10
2022-08-11T20:48:15.382Z,32.10
2022-08-11T20:51:07.390Z,32.20
2022-08-11T20:53:59.655Z,32.30
2022-08-11T20:56:53.860Z,32.30
2022-08-11T20:59:50.177Z,32.40
2022-08-11T21:02:44.454Z,32.70
2022-08-11T21:08:41.690Z,33.10
2022-08-11T21:11:29.471Z,33.30
2022-08-11T21:14:17.801Z,33.60
2022-08-11T21:17:27.628Z,33.80
2022-08-11T21:20:20.796Z,34.00
2022-08-11T21:23:16.104Z,34.30
2022-08-11T21:26:33.291Z,34.50
2022-08-11T21:29:19.835Z,34.70
2022-08-11T21:32:07.842Z,34.80
2022-08-11T21:34:54.861Z,34.90
2022-08-11T21:37:41.574Z,35.10
2022-08-11T21:40:29.730Z,35.30
2022-08-11T21:43:18.367Z,35.50
2022-08-11T21:46:05.749Z,35.70
2022-08-11T21:48:53.401Z,35.90
2022-08-11T21:51:41.594Z,36.10
2022-08-11T21:54:30.769Z,36.30
2022-08-11T21:57:21.183Z,36.50
2022-08-11T22:00:14.988Z,36.70
2022-08-11T22:03:04.517Z,36.80
2022-08-11T22:05:51.899Z,36.90
2022-08-11T22:08:38.112Z,37.10
2022-08-11T22:11:31.737Z,37.30
2022-08-11T22:14:20.113Z,37.50
2022-08-11T22:17:05.704Z,37.60
2022-08-11T22:19:53.188Z,37.90
2022-08-11T22:22:51.864Z,38.00
2022-08-11T22:25:53.683Z,38.20
2022-08-11T22:28:42.017Z,38.40
2022-08-11T22:31:29.230Z,38.60
2022-08-11T22:34:14.709Z,38.60
2022-08-11T22:37:02.018Z,38.80
2022-08-11T22:40:02.452Z,38.90
2022-08-11T22:42:50.217Z,38.90
2022-08-11T22:45:36.265Z,39.10
2022-08-11T22:48:24.194Z,39.10
2022-08-11T22:51:11.805Z,39.20
2022-08-11T22:53:59.122Z,39.30
2022-08-11T22:56:47.415Z,39.40
2022-08-11T22:59:35.674Z,39.50
2022-08-11T23:02:25.693Z,39.60
2022-08-11T23:05:12.202Z,39.80
2022-08-11T23:07:58.212Z,39.80
2022-08-11T23:10:44.640Z,39.90
2022-08-11T23:13:31.518Z,40.00
2022-08-11T23:16:17.260Z,40.20
2022-08-11T23:19:04.016Z,40.30
2022-08-11T23:21:50.727Z,40.40
2022-08-11T23:24:36.911Z,40.50
2022-08-11T23:27:24.658Z,40.70
2022-08-11T23:30:11.376Z,40.80
2022-08-11T23:32:59.446Z,40.90
2022-08-11T23:35:53.562Z,41.00
2022-08-11T23:38:40.669Z,41.10
2022-08-11T23:41:26.270Z,41.20
2022-08-11T23:44:12.773Z,41.30
2022-08-11T23:46:59.165Z,41.40
2022-08-11T23:49:45.696Z,41.50
2022-08-11T23:52:32.153Z,41.60
2022-08-11T23:55:18.132Z,41.80
2022-08-11T23:58:03.463Z,41.90
